sensor_id;sensor_type;location;lat;lon;timestamp;pressure;altitude;pressure_sealevel;temperature;humidity
41632;BME280;37452;51.938;4.624;2022-10-23T00:01:20;76914.78;;;-142.75;100.00
41632;BME280;37452;51.938;4.624;2022-10-23T00:03:45;76932.50;;;-142.75;100.00
41632;BME280;37452;51.938;4.624;2022-10-23T00:06:11;76918.72;;;-142.75;100.00
41632;BME280;37452;51.938;4.624;2022-10-23T00:08:37;76916.75;;;-142.75;100.00
41632;BME280;37452;51.938;4.624;2022-10-23T00:11:06;76920.69;;;-142.75;100.00
41632;BME280;37452;51.938;4.624;2022-10-23T00:13:32;76928.56;;;-142.75;100.00
41632;BME280;37452;51.938;4.624;2022-10-23T00:15:57;76932.50;;;-142.75;100.00
41632;BME280;37452;51.938;4.624;2022-10-23T00:18:22;76924.63;;;-142.75;100.00
41632;BME280;37452;51.938;4.624;2022-10-23T00:20:47;76934.47;;;-142.75;100.00
41632;BME280;37452;51.938;4.624;2022-10-23T00:23:12;76930.53;;;-142.75;100.00
41632;BME280;37452;51.938;4.624;2022-10-23T00:25:38;76936.44;;;-142.75;100.00
41632;BME280;37452;51.938;4.624;2022-10-23T00:28:03;76944.31;;;-142.75;100.00
41632;BME280;37452;51.938;4.624;2022-10-23T00:30:28;76948.25;;;-142.75;100.00
41632;BME280;37452;51.938;4.624;2022-10-23T00:32:53;76940.38;;;-142.75;100.00
41632;BME280;37452;51.938;4.624;2022-10-23T00:35:18;76936.44;;;-142.75;100.00
41632;BME280;37452;51.938;4.624;2022-10-23T00:37:44;76948.25;;;-142.75;100.00
41632;BME280;37452;51.938;4.624;2022-10-23T00:40:09;76942.34;;;-142.75;100.00
41632;BME280;37452;51.938;4.624;2022-10-23T00:42:35;76956.13;;;-142.75;100.00
41632;BME280;37452;51.938;4.624;2022-10-23T00:45:08;76952.19;;;-142.75;100.00
41632;BME280;37452;51.938;4.624;2022-10-23T00:47:34;76948.25;;;-142.75;100.00
41632;BME280;37452;51.938;4.624;2022-10-23T00:49:59;76944.31;;;-142.75;100.00
41632;BME280;37452;51.938;4.624;2022-10-23T00:52:25;76940.38;;;-142.75;100.00
41632;BME280;37452;51.938;4.624;2022-10-23T00:54:51;76944.31;;;-142.75;100.00
41632;BME280;37452;51.938;4.624;2022-10-23T00:57:16;76942.34;;;-142.75;100.00
41632;BME280;37452;51.938;4.624;2022-10-23T00:59:41;76942.34;;;-142.75;100.00
41632;BME280;37452;51.938;4.624;2022-10-23T01:02:07;76948.25;;;-142.75;100.00
41632;BME280;37452;51.938;4.624;2022-10-23T01:04:32;76946.28;;;-142.75;100.00
41632;BME280;37452;51.938;4.624;2022-10-23T01:07:41;76952.19;;;-142.75;100.00
41632;BME280;37452;51.938;4.624;2022-10-23T01:14:59;76958.09;;;-142.75;100.00
41632;BME280;37452;51.938;4.624;2022-10-23T01:17:34;76952.19;;;-142.75;100.00
41632;BME280;37452;51.938;4.624;2022-10-23T01:22:40;76964.00;;;-142.75;100.00
41632;BME280;37452;51.938;4.624;2022-10-23T01:25:26;76960.06;;;-142.75;100.00
41632;BME280;37452;51.938;4.624;2022-10-23T01:28:04;76977.78;;;-142.75;100.00
41632;BME280;37452;51.938;4.624;2022-10-23T01:30:32;76975.81;;;-142.75;100.00
41632;BME280;37452;51.938;4.624;2022-10-23T01:33:02;76979.75;;;-142.75;100.00
41632;BME280;37452;51.938;4.624;2022-10-23T01:35:36;76977.78;;;-142.75;100.00
41632;BME280;37452;51.938;4.624;2022-10-23T01:38:05;76979.75;;;-142.75;100.00
41632;BME280;37452;51.938;4.624;2022-10-23T01:43:08;76975.81;;;-142.75;100.00
41632;BME280;37452;51.938;4.624;2022-10-23T01:45:38;76967.94;;;-142.75;100.00
41632;BME280;37452;51.938;4.624;2022-10-23T01:48:05;76967.94;;;-142.75;100.00
41632;BME280;37452;51.938;4.624;2022-10-23T01:50:32;76964.00;;;-142.75;100.00
41632;BME280;37452;51.938;4.624;2022-10-23T01:52:58;76962.03;;;-142.75;100.00
41632;BME280;37452;51.938;4.624;2022-10-23T01:55:24;76965.97;;;-142.75;100.00
41632;BME280;37452;51.938;4.624;2022-10-23T01:57:50;76964.00;;;-142.75;100.00
41632;BME280;37452;51.938;4.624;2022-10-23T02:00:18;76964.00;;;-142.75;100.00
41632;BME280;37452;51.938;4.624;2022-10-23T02:02:44;76967.94;;;-142.75;100.00
41632;BME280;37452;51.938;4.624;2022-10-23T02:07:35;76956.13;;;-142.75;100.00
41632;BME280;37452;51.938;4.624;2022-10-23T02:10:02;76962.03;;;-142.75;100.00
41632;BME280;37452;51.938;4.624;2022-10-23T02:15:13;76971.88;;;-142.75;100.00
41632;BME280;37452;51.938;4.624;2022-10-23T02:17:57;76965.97;;;-142.75;100.00
41632;BME280;37452;51.938;4.624;2022-10-23T02:20:28;76967.94;;;-142.75;100.00
41632;BME280;37452;51.938;4.624;2022-10-23T02:25:40;76991.56;;;-142.75;100.00
41632;BME280;37452;51.938;4.624;2022-10-23T02:28:09;76979.75;;;-142.75;100.00
41632;BME280;37452;51.938;4.624;2022-10-23T02:30:38;76973.84;;;-142.75;100.00
41632;BME280;37452;51.938;4.624;2022-10-23T02:33:05;76971.88;;;-142.75;100.00
41632;BME280;37452;51.938;4.624;2022-10-23T02:35:32;76973.84;;;-142.75;100.00
41632;BME280;37452;51.938;4.624;2022-10-23T02:37:58;76971.88;;;-142.75;100.00
41632;BME280;37452;51.938;4.624;2022-10-23T02:40:24;76977.78;;;-142.75;100.00
41632;BME280;37452;51.938;4.624;2022-10-23T02:42:57;76967.94;;;-142.75;100.00
41632;BME280;37452;51.938;4.624;2022-10-23T02:45:30;76965.97;;;-142.75;100.00
41632;BME280;37452;51.938;4.624;2022-10-23T02:59:10;76928.56;;;-142.75;100.00
41632;BME280;37452;51.938;4.624;2022-10-23T03:01:42;76912.81;;;-142.75;100.00
41632;BME280;37452;51.938;4.624;2022-10-23T03:04:12;76906.91;;;-142.75;100.00
41632;BME280;37452;51.938;4.624;2022-10-23T03:06:37;76912.81;;;-142.75;100.00
41632;BME280;37452;51.938;4.624;2022-10-23T03:09:04;76902.97;;;-142.75;100.00
41632;BME280;37452;51.938;4.624;2022-10-23T03:11:30;76904.94;;;-142.75;100.00
41632;BME280;37452;51.938;4.624;2022-10-23T03:13:55;76904.94;;;-142.75;100.00
41632;BME280;37452;51.938;4.624;2022-10-23T03:16:20;76902.97;;;-142.75;100.00
41632;BME280;37452;51.938;4.624;2022-10-23T03:18:46;76908.88;;;-142.75;100.00
41632;BME280;37452;51.938;4.624;2022-10-23T03:21:11;76908.88;;;-142.75;100.00
41632;BME280;37452;51.938;4.624;2022-10-23T03:23:36;76901.00;;;-142.75;100.00
41632;BME280;37452;51.938;4.624;2022-10-23T03:26:01;76906.91;;;-142.75;100.00
41632;BME280;37452;51.938;4.624;2022-10-23T03:28:26;76897.06;;;-142.75;100.00
41632;BME280;37452;51.938;4.624;2022-10-23T03:30:52;76901.00;;;-142.75;100.00
41632;BME280;37452;51.938;4.624;2022-10-23T03:33:17;76895.09;;;-142.75;100.00
41632;BME280;37452;51.938;4.624;2022-10-23T03:35:42;76885.25;;;-142.75;100.00
41632;BME280;37452;51.938;4.624;2022-10-23T03:38:07;76877.38;;;-142.75;100.00
41632;BME280;37452;51.938;4.624;2022-10-23T03:40:33;76875.41;;;-142.75;100.00
41632;BME280;37452;51.938;4.624;2022-10-23T03:42:58;76867.53;;;-142.75;100.00
41632;BME280;37452;51.938;4.624;2022-10-23T03:45:23;76871.47;;;-142.75;100.00
41632;BME280;37452;51.938;4.624;2022-10-23T03:47:48;76871.47;;;-142.75;100.00
41632;BME280;37452;51.938;4.624;2022-10-23T03:50:15;76865.56;;;-142.75;100.00
41632;BME280;37452;51.938;4.624;2022-10-23T03:52:41;76865.56;;;-142.75;100.00
41632;BME280;37452;51.938;4.624;2022-10-23T03:55:07;76867.53;;;-142.75;100.00
41632;BME280;37452;51.938;4.624;2022-10-23T03:57:32;76863.59;;;-142.75;100.00
41632;BME280;37452;51.938;4.624;2022-10-23T03:59:58;76861.63;;;-142.75;100.00
41632;BME280;37452;51.938;4.624;2022-10-23T04:02:23;76873.44;;;-142.75;100.00
41632;BME280;37452;51.938;4.624;2022-10-23T04:04:48;76885.25;;;-142.75;100.00
41632;BME280;37452;51.938;4.624;2022-10-23T04:07:13;76881.31;;;-142.75;100.00
41632;BME280;37452;51.938;4.624;2022-10-23T04:09:39;76875.41;;;-142.75;100.00
41632;BME280;37452;51.938;4.624;2022-10-23T04:12:04;76869.50;;;-142.75;100.00
41632;BME280;37452;51.938;4.624;2022-10-23T04:14:29;76867.53;;;-142.75;100.00
41632;BME280;37452;51.938;4.624;2022-10-23T04:16:54;76865.56;;;-142.75;100.00
41632;BME280;37452;51.938;4.624;2022-10-23T04:19:20;76851.78;;;-142.75;100.00
41632;BME280;37452;51.938;4.624;2022-10-23T04:21:45;76851.78;;;-142.75;100.00
41632;BME280;37452;51.938;4.624;2022-10-23T04:24:10;76845.88;;;-142.75;100.00
41632;BME280;37452;51.938;4.624;2022-10-23T04:26:35;76845.88;;;-142.75;100.00
41632;BME280;37452;51.938;4.624;2022-10-23T04:29:00;76847.84;;;-142.75;100.00
41632;BME280;37452;51.938;4.624;2022-10-23T04:31:28;76867.53;;;-142.75;100.00
41632;BME280;37452;51.938;4.624;2022-10-23T04:33:53;76865.56;;;-142.75;100.00
41632;BME280;37452;51.938;4.624;2022-10-23T04:36:19;76865.56;;;-142.75;100.00
41632;BME280;37452;51.938;4.624;2022-10-23T04:38:44;76869.50;;;-142.75;100.00
41632;BME280;37452;51.938;4.624;2022-10-23T04:41:09;76861.63;;;-142.75;100.00
41632;BME280;37452;51.938;4.624;2022-10-23T04:43:34;76863.59;;;-142.75;100.00
41632;BME280;37452;51.938;4.624;2022-10-23T04:46:00;76873.44;;;-142.75;100.00
41632;BME280;37452;51.938;4.624;2022-10-23T04:48:25;76867.53;;;-142.75;100.00
41632;BME280;37452;51.938;4.624;2022-10-23T04:50:57;76873.44;;;-142.75;100.00
41632;BME280;37452;51.938;4.624;2022-10-23T04:53:23;76873.44;;;-142.75;100.00
41632;BME280;37452;51.938;4.624;2022-10-23T04:55:52;76869.50;;;-142.75;100.00
41632;BME280;37452;51.938;4.624;2022-10-23T04:58:17;76869.50;;;-142.75;100.00
41632;BME280;37452;51.938;4.624;2022-10-23T05:00:43;76861.63;;;-142.75;100.00
41632;BME280;37452;51.938;4.624;2022-10-23T05:03:08;76849.81;;;-142.75;100.00
41632;BME280;37452;51.938;4.624;2022-10-23T05:05:33;76841.94;;;-142.75;100.00
41632;BME280;37452;51.938;4.624;2022-10-23T05:07:59;76851.78;;;-142.75;100.00
41632;BME280;37452;51.938;4.624;2022-10-23T05:10:24;76855.72;;;-142.75;100.00
41632;BME280;37452;51.938;4.624;2022-10-23T05:12:49;76845.88;;;-142.75;100.00
41632;BME280;37452;51.938;4.624;2022-10-23T05:15:14;76839.97;;;-142.75;100.00
41632;BME280;37452;51.938;4.624;2022-10-23T05:17:40;76845.88;;;-142.75;100.00
41632;BME280;37452;51.938;4.624;2022-10-23T05:20:09;76847.84;;;-142.75;100.00
41632;BME280;37452;51.938;4.624;2022-10-23T05:22:36;76847.84;;;-142.75;100.00
41632;BME280;37452;51.938;4.624;2022-10-23T05:25:04;76843.91;;;-142.75;100.00
41632;BME280;37452;51.938;4.624;2022-10-23T05:27:30;76832.09;;;-142.75;100.00
41632;BME280;37452;51.938;4.624;2022-10-23T05:29:55;76822.25;;;-142.75;100.00
41632;BME280;37452;51.938;4.624;2022-10-23T05:32:20;76812.41;;;-142.75;100.00
41632;BME280;37452;51.938;4.624;2022-10-23T05:34:46;76814.38;;;-142.75;100.00
41632;BME280;37452;51.938;4.624;2022-10-23T05:37:12;76828.16;;;-142.75;100.00
41632;BME280;37452;51.938;4.624;2022-10-23T05:39:38;76818.31;;;-142.75;100.00
41632;BME280;37452;51.938;4.624;2022-10-23T05:42:03;76818.31;;;-142.75;100.00
41632;BME280;37452;51.938;4.624;2022-10-23T05:44:28;76806.50;;;-142.75;100.00
41632;BME280;37452;51.938;4.624;2022-10-23T05:46:53;76810.44;;;-142.75;100.00
41632;BME280;37452;51.938;4.624;2022-10-23T05:49:19;76812.41;;;-142.75;100.00
41632;BME280;37452;51.938;4.624;2022-10-23T05:51:44;76806.50;;;-142.75;100.00
41632;BME280;37452;51.938;4.624;2022-10-23T05:54:09;76796.69;;;-142.75;100.00
41632;BME280;37452;51.938;4.624;2022-10-23T05:56:35;76798.66;;;-142.75;100.00
41632;BME280;37452;51.938;4.624;2022-10-23T05:59:00;76790.78;;;-142.75;100.00
41632;BME280;37452;51.938;4.624;2022-10-23T06:01:25;76784.88;;;-142.75;100.00
41632;BME280;37452;51.938;4.624;2022-10-23T06:03:51;76786.84;;;-142.75;100.00
41632;BME280;37452;51.938;4.624;2022-10-23T06:06:16;76782.91;;;-142.75;100.00
41632;BME280;37452;51.938;4.624;2022-10-23T06:08:41;76780.94;;;-142.75;100.00
41632;BME280;37452;51.938;4.624;2022-10-23T06:11:11;76771.09;;;-142.75;100.00
41632;BME280;37452;51.938;4.624;2022-10-23T06:13:37;76767.16;;;-142.75;100.00
41632;BME280;37452;51.938;4.624;2022-10-23T06:18:33;76759.28;;;-142.75;100.00
41632;BME280;37452;51.938;4.624;2022-10-23T06:20:59;76765.19;;;-142.75;100.00
41632;BME280;37452;51.938;4.624;2022-10-23T06:23:24;76755.34;;;-142.75;100.00
41632;BME280;37452;51.938;4.624;2022-10-23T06:25:50;76759.28;;;-142.75;100.00
41632;BME280;37452;51.938;4.624;2022-10-23T06:28:15;76759.28;;;-142.75;100.00
41632;BME280;37452;51.938;4.624;2022-10-23T06:30:40;76755.34;;;-142.75;100.00
41632;BME280;37452;51.938;4.624;2022-10-23T06:33:05;76759.28;;;-142.75;100.00
41632;BME280;37452;51.938;4.624;2022-10-23T06:35:31;76743.53;;;-142.75;100.00
41632;BME280;37452;51.938;4.624;2022-10-23T06:37:56;76731.72;;;-142.75;100.00
41632;BME280;37452;51.938;4.624;2022-10-23T06:40:21;76727.78;;;-142.75;100.00
41632;BME280;37452;51.938;4.624;2022-10-23T06:42:46;76733.69;;;-142.75;100.00
41632;BME280;37452;51.938;4.624;2022-10-23T06:45:12;76733.69;;;-142.75;100.00
41632;BME280;37452;51.938;4.624;2022-10-23T06:47:37;76739.59;;;-142.75;100.00
41632;BME280;37452;51.938;4.624;2022-10-23T06:50:02;76745.50;;;-142.75;100.00
41632;BME280;37452;51.938;4.624;2022-10-23T06:52:27;76747.47;;;-142.75;100.00
41632;BME280;37452;51.938;4.624;2022-10-23T06:54:55;76743.53;;;-142.75;100.00
41632;BME280;37452;51.938;4.624;2022-10-23T06:57:20;76755.34;;;-142.75;100.00
41632;BME280;37452;51.938;4.624;2022-10-23T06:59:45;76755.34;;;-142.75;100.00
41632;BME280;37452;51.938;4.624;2022-10-23T07:02:11;76745.50;;;-142.75;100.00
41632;BME280;37452;51.938;4.624;2022-10-23T07:04:36;76733.69;;;-142.75;100.00
41632;BME280;37452;51.938;4.624;2022-10-23T07:07:03;76723.84;;;-142.75;100.00
41632;BME280;37452;51.938;4.624;2022-10-23T07:09:30;76727.78;;;-142.75;100.00
41632;BME280;37452;51.938;4.624;2022-10-23T07:11:55;76723.84;;;-142.75;100.00
41632;BME280;37452;51.938;4.624;2022-10-23T07:14:20;76731.72;;;-142.75;100.00
41632;BME280;37452;51.938;4.624;2022-10-23T07:16:46;76729.75;;;-142.75;100.00
41632;BME280;37452;51.938;4.624;2022-10-23T07:19:11;76727.78;;;-142.75;100.00
41632;BME280;37452;51.938;4.624;2022-10-23T07:21:36;76719.91;;;-142.75;100.00
41632;BME280;37452;51.938;4.624;2022-10-23T07:24:02;76717.94;;;-142.75;100.00
41632;BME280;37452;51.938;4.624;2022-10-23T07:26:27;76715.97;;;-142.75;100.00
41632;BME280;37452;51.938;4.624;2022-10-23T07:28:53;76704.16;;;-142.75;100.00
41632;BME280;37452;51.938;4.624;2022-10-23T07:31:22;76708.09;;;-142.75;100.00
41632;BME280;37452;51.938;4.624;2022-10-23T07:33:48;76696.28;;;-142.75;100.00
41632;BME280;37452;51.938;4.624;2022-10-23T07:36:13;76692.34;;;-142.75;100.00
41632;BME280;37452;51.938;4.624;2022-10-23T07:38:38;76684.47;;;-142.75;100.00
41632;BME280;37452;51.938;4.624;2022-10-23T07:41:03;76686.44;;;-142.75;100.00
41632;BME280;37452;51.938;4.624;2022-10-23T07:43:29;76682.50;;;-142.75;100.00
41632;BME280;37452;51.938;4.624;2022-10-23T07:45:57;76682.50;;;-142.75;100.00
41632;BME280;37452;51.938;4.624;2022-10-23T07:48:22;76678.56;;;-142.75;100.00
41632;BME280;37452;51.938;4.624;2022-10-23T07:50:48;76664.78;;;-142.75;100.00
41632;BME280;37452;51.938;4.624;2022-10-23T07:53:15;76660.84;;;-142.75;100.00
41632;BME280;37452;51.938;4.624;2022-10-23T07:55:41;76668.72;;;-142.75;100.00
41632;BME280;37452;51.938;4.624;2022-10-23T07:58:06;76651.00;;;-142.75;100.00
41632;BME280;37452;51.938;4.624;2022-10-23T08:00:32;76649.03;;;-142.75;100.00
41632;BME280;37452;51.938;4.624;2022-10-23T08:02:57;76649.03;;;-142.75;100.00
41632;BME280;37452;51.938;4.624;2022-10-23T08:05:22;76647.06;;;-142.75;100.00
41632;BME280;37452;51.938;4.624;2022-10-23T08:07:47;76641.16;;;-142.75;100.00
41632;BME280;37452;51.938;4.624;2022-10-23T08:10:12;76643.13;;;-142.75;100.00
41632;BME280;37452;51.938;4.624;2022-10-23T08:12:38;76629.34;;;-142.75;100.00
41632;BME280;37452;51.938;4.624;2022-10-23T08:15:03;76621.47;;;-142.75;100.00
41632;BME280;37452;51.938;4.624;2022-10-23T08:17:28;76627.38;;;-142.75;100.00
41632;BME280;37452;51.938;4.624;2022-10-23T08:19:53;76627.38;;;-142.75;100.00
41632;BME280;37452;51.938;4.624;2022-10-23T08:22:19;76619.50;;;-142.75;100.00
41632;BME280;37452;51.938;4.624;2022-10-23T08:24:44;76609.66;;;-142.75;100.00
41632;BME280;37452;51.938;4.624;2022-10-23T08:27:09;76601.78;;;-142.75;100.00
41632;BME280;37452;51.938;4.624;2022-10-23T08:29:34;76593.91;;;-142.75;100.00
41632;BME280;37452;51.938;4.624;2022-10-23T08:31:59;76582.09;;;-142.75;100.00
41632;BME280;37452;51.938;4.624;2022-10-23T08:34:27;76582.09;;;-142.75;100.00
41632;BME280;37452;51.938;4.624;2022-10-23T08:36:52;76574.22;;;-142.75;100.00
41632;BME280;37452;51.938;4.624;2022-10-23T08:39:17;76566.34;;;-142.75;100.00
41632;BME280;37452;51.938;4.624;2022-10-23T08:41:47;76560.44;;;-142.75;100.00
41632;BME280;37452;51.938;4.624;2022-10-23T08:44:27;76558.47;;;-142.75;100.00
41632;BME280;37452;51.938;4.624;2022-10-23T08:46:59;76546.66;;;-142.75;100.00
41632;BME280;37452;51.938;4.624;2022-10-23T08:51:54;76540.75;;;-142.75;100.00
41632;BME280;37452;51.938;4.624;2022-10-23T08:57:03;76523.06;;;-142.75;100.00
41632;BME280;37452;51.938;4.624;2022-10-23T08:59:37;76515.19;;;-142.75;100.00
41632;BME280;37452;51.938;4.624;2022-10-23T09:02:19;76517.16;;;-142.75;100.00
41632;BME280;37452;51.938;4.624;2022-10-23T09:04:46;76507.31;;;-142.75;100.00
41632;BME280;37452;51.938;4.624;2022-10-23T09:09:46;76503.38;;;-142.75;100.00
41632;BME280;37452;51.938;4.624;2022-10-23T09:12:19;76499.44;;;-142.75;100.00
41632;BME280;37452;51.938;4.624;2022-10-23T09:14:51;76483.69;;;-142.75;100.00
41632;BME280;37452;51.938;4.624;2022-10-23T09:19:44;76475.81;;;-142.75;100.00
41632;BME280;37452;51.938;4.624;2022-10-23T09:22:09;76479.75;;;-142.75;100.00
41632;BME280;37452;51.938;4.624;2022-10-23T09:24:35;76465.97;;;-142.75;100.00
41632;BME280;37452;51.938;4.624;2022-10-23T09:27:00;76467.94;;;-142.75;100.00
41632;BME280;37452;51.938;4.624;2022-10-23T09:29:29;76464.00;;;-142.75;100.00
41632;BME280;37452;51.938;4.624;2022-10-23T09:32:03;76452.19;;;-142.75;100.00
41632;BME280;37452;51.938;4.624;2022-10-23T09:34:30;76456.13;;;-142.75;100.00
41632;BME280;37452;51.938;4.624;2022-10-23T09:36:57;76446.28;;;-142.75;100.00
41632;BME280;37452;51.938;4.624;2022-10-23T09:39:25;76440.38;;;-142.75;100.00
41632;BME280;37452;51.938;4.624;2022-10-23T09:41:50;76432.50;;;-142.75;100.00
41632;BME280;37452;51.938;4.624;2022-10-23T09:44:25;76416.75;;;-142.75;100.00
41632;BME280;37452;51.938;4.624;2022-10-23T09:46:57;76420.69;;;-142.75;100.00
41632;BME280;37452;51.938;4.624;2022-10-23T09:49:24;76428.56;;;-142.75;100.00
41632;BME280;37452;51.938;4.624;2022-10-23T09:54:38;76418.72;;;-142.75;100.00
41632;BME280;37452;51.938;4.624;2022-10-23T09:59:40;76412.81;;;-142.75;100.00
41632;BME280;37452;51.938;4.624;2022-10-23T10:05:18;76397.06;;;-142.75;100.00
41632;BME280;37452;51.938;4.624;2022-10-23T10:07:51;76387.22;;;-142.75;100.00
41632;BME280;37452;51.938;4.624;2022-10-23T10:10:17;76371.47;;;-142.75;100.00
41632;BME280;37452;51.938;4.624;2022-10-23T10:12:50;76369.50;;;-142.75;100.00
41632;BME280;37452;51.938;4.624;2022-10-23T10:15:21;76357.69;;;-142.75;100.00
41632;BME280;37452;51.938;4.624;2022-10-23T10:23:05;76332.13;;;-142.75;100.00
41632;BME280;37452;51.938;4.624;2022-10-23T10:25:39;76314.41;;;-142.75;100.00
41632;BME280;37452;51.938;4.624;2022-10-23T10:28:14;76306.53;;;-142.75;100.00
41632;BME280;37452;51.938;4.624;2022-10-23T10:30:57;76306.53;;;-142.75;100.00
41632;BME280;37452;51.938;4.624;2022-10-23T10:36:00;76275.03;;;-142.75;100.00
41632;BME280;37452;51.938;4.624;2022-10-23T10:43:27;76233.69;;;-142.75;100.00
41632;BME280;37452;51.938;4.624;2022-10-23T10:45:56;76231.72;;;-142.75;100.00
41632;BME280;37452;51.938;4.624;2022-10-23T10:48:31;76212.03;;;-142.75;100.00
41632;BME280;37452;51.938;4.624;2022-10-23T10:51:00;76210.06;;;-142.75;100.00
41632;BME280;37452;51.938;4.624;2022-10-23T10:56:13;76196.31;;;-142.75;100.00
41632;BME280;37452;51.938;4.624;2022-10-23T11:01:16;76178.59;;;-142.75;100.00
41632;BME280;37452;51.938;4.624;2022-10-23T11:03:52;76168.75;;;-142.75;100.00
41632;BME280;37452;51.938;4.624;2022-10-23T11:06:19;76164.81;;;-142.75;100.00
41632;BME280;37452;51.938;4.624;2022-10-23T11:08:47;76154.97;;;-142.75;100.00
41632;BME280;37452;51.938;4.624;2022-10-23T11:13:38;76117.56;;;-142.75;100.00
41632;BME280;37452;51.938;4.624;2022-10-23T11:16:23;76097.88;;;-142.75;100.00
41632;BME280;37452;51.938;4.624;2022-10-23T11:18:58;76093.94;;;-142.75;100.00
41632;BME280;37452;51.938;4.624;2022-10-23T11:26:39;76050.66;;;-142.75;100.00
41632;BME280;37452;51.938;4.624;2022-10-23T11:36:55;76011.28;;;-142.75;100.00
41632;BME280;37452;51.938;4.624;2022-10-23T11:41:48;76013.25;;;-142.75;100.00
41632;BME280;37452;51.938;4.624;2022-10-23T11:44:27;76001.44;;;-142.75;100.00
41632;BME280;37452;51.938;4.624;2022-10-23T11:49:46;75983.72;;;-142.75;100.00
41632;BME280;37452;51.938;4.624;2022-10-23T11:52:21;75966.00;;;-142.75;100.00
41632;BME280;37452;51.938;4.624;2022-10-23T11:54:46;75966.00;;;-142.75;100.00
41632;BME280;37452;51.938;4.624;2022-10-23T11:57:12;75952.25;;;-142.75;100.00
41632;BME280;37452;51.938;4.624;2022-10-23T12:02:24;75944.38;;;-142.75;100.00
41632;BME280;37452;51.938;4.624;2022-10-23T12:04:51;75928.63;;;-142.75;100.00
41632;BME280;37452;51.938;4.624;2022-10-23T12:09:45;75912.88;;;-142.75;100.00
41632;BME280;37452;51.938;4.624;2022-10-23T12:12:24;75897.13;;;-142.75;100.00
41632;BME280;37452;51.938;4.624;2022-10-23T12:14:50;75871.53;;;-142.75;100.00
41632;BME280;37452;51.938;4.624;2022-10-23T12:19:47;75883.34;;;-142.75;100.00
41632;BME280;37452;51.938;4.624;2022-10-23T12:22:13;75869.56;;;-142.75;100.00
41632;BME280;37452;51.938;4.624;2022-10-23T12:25:40;75863.66;;;-142.75;100.00
41632;BME280;37452;51.938;4.624;2022-10-23T12:27:36;75855.81;;;-142.75;100.00
41632;BME280;37452;51.938;4.624;2022-10-23T12:38:17;75810.53;;;-142.75;100.00
41632;BME280;37452;51.938;4.624;2022-10-23T12:40:45;75794.78;;;-142.75;100.00
41632;BME280;37452;51.938;4.624;2022-10-23T12:43:22;75790.84;;;-142.75;100.00
41632;BME280;37452;51.938;4.624;2022-10-23T12:45:48;75779.03;;;-142.75;100.00
41632;BME280;37452;51.938;4.624;2022-10-23T12:48:18;75765.25;;;-142.75;100.00
41632;BME280;37452;51.938;4.624;2022-10-23T12:50:46;75749.53;;;-142.75;100.00
41632;BME280;37452;51.938;4.624;2022-10-23T12:53:14;75747.56;;;-142.75;100.00
41632;BME280;37452;51.938;4.624;2022-10-23T12:55:50;75735.75;;;-142.75;100.00
41632;BME280;37452;51.938;4.624;2022-10-23T12:58:19;75720.00;;;-142.75;100.00
41632;BME280;37452;51.938;4.624;2022-10-23T13:00:54;75716.06;;;-142.75;100.00
41632;BME280;37452;51.938;4.624;2022-10-23T13:03:21;75696.38;;;-142.75;100.00
41632;BME280;37452;51.938;4.624;2022-10-23T13:05:48;75686.53;;;-142.75;100.00
41632;BME280;37452;51.938;4.624;2022-10-23T13:08:13;75678.66;;;-142.75;100.00
41632;BME280;37452;51.938;4.624;2022-10-23T13:10:39;75680.63;;;-142.75;100.00
41632;BME280;37452;51.938;4.624;2022-10-23T13:13:04;75688.50;;;-142.75;100.00
41632;BME280;37452;51.938;4.624;2022-10-23T13:15:38;75682.59;;;-142.75;100.00
41632;BME280;37452;51.938;4.624;2022-10-23T13:18:04;75678.66;;;-142.75;100.00
41632;BME280;37452;51.938;4.624;2022-10-23T13:20:34;75668.84;;;-142.75;100.00
41632;BME280;37452;51.938;4.624;2022-10-23T13:23:23;75657.03;;;-142.75;100.00
41632;BME280;37452;51.938;4.624;2022-10-23T13:25:56;75649.16;;;-142.75;100.00
41632;BME280;37452;51.938;4.624;2022-10-23T13:28:23;75641.28;;;-142.75;100.00
41632;BME280;37452;51.938;4.624;2022-10-23T13:33:31;75651.13;;;-142.75;100.00
41632;BME280;37452;51.938;4.624;2022-10-23T13:35:56;75647.19;;;-142.75;100.00
41632;BME280;37452;51.938;4.624;2022-10-23T13:38:29;75649.16;;;-142.75;100.00
41632;BME280;37452;51.938;4.624;2022-10-23T13:40:55;75655.06;;;-142.75;100.00
41632;BME280;37452;51.938;4.624;2022-10-23T13:43:22;75647.19;;;-142.75;100.00
41632;BME280;37452;51.938;4.624;2022-10-23T13:45:48;75651.13;;;-142.75;100.00
41632;BME280;37452;51.938;4.624;2022-10-23T13:48:14;75639.31;;;-142.75;100.00
41632;BME280;37452;51.938;4.624;2022-10-23T13:50:40;75633.41;;;-142.75;100.00
41632;BME280;37452;51.938;4.624;2022-10-23T13:53:07;75637.34;;;-142.75;100.00
41632;BME280;37452;51.938;4.624;2022-10-23T13:55:32;75643.25;;;-142.75;100.00
41632;BME280;37452;51.938;4.624;2022-10-23T13:57:58;75639.31;;;-142.75;100.00
41632;BME280;37452;51.938;4.624;2022-10-23T14:00:23;75633.41;;;-142.75;100.00
41632;BME280;37452;51.938;4.624;2022-10-23T14:02:48;75629.47;;;-142.75;100.00
41632;BME280;37452;51.938;4.624;2022-10-23T14:05:13;75627.50;;;-142.75;100.00
41632;BME280;37452;51.938;4.624;2022-10-23T14:07:38;75617.66;;;-142.75;100.00
41632;BME280;37452;51.938;4.624;2022-10-23T14:10:04;75609.78;;;-142.75;100.00
41632;BME280;37452;51.938;4.624;2022-10-23T14:12:29;75599.94;;;-142.75;100.00
41632;BME280;37452;51.938;4.624;2022-10-23T14:14:54;75601.91;;;-142.75;100.00
41632;BME280;37452;51.938;4.624;2022-10-23T14:17:19;75596.00;;;-142.75;100.00
41632;BME280;37452;51.938;4.624;2022-10-23T14:19:45;75588.16;;;-142.75;100.00